sensor_id;sensor_type;location;lat;lon;timestamp;pressure;altitude;pressure_sealevel;temperature
70050;BMP180;57391;51.306;22.680;2022-07-10T00:00:53;99580.00;;;15.30
70050;BMP180;57391;51.306;22.680;2022-07-10T00:03:20;99575.60;;;15.20
70050;BMP180;57391;51.306;22.680;2022-07-10T00:05:47;99569.00;;;15.20
70050;BMP180;57391;51.306;22.680;2022-07-10T00:08:16;99569.80;;;15.20
70050;BMP180;57391;51.306;22.680;2022-07-10T00:10:43;99571.60;;;15.10
70050;BMP180;57391;51.306;22.680;2022-07-10T00:13:10;99571.40;;;15.10
70050;BMP180;57391;51.306;22.680;2022-07-10T00:15:37;99564.80;;;15.00
70050;BMP180;57391;51.306;22.680;2022-07-10T00:18:04;99563.20;;;15.00
70050;BMP180;57391;51.306;22.680;2022-07-10T00:20:31;99561.80;;;15.00
70050;BMP180;57391;51.306;22.680;2022-07-10T00:22:59;99556.20;;;14.90
70050;BMP180;57391;51.306;22.680;2022-07-10T00:25:26;99555.20;;;14.90
70050;BMP180;57391;51.306;22.680;2022-07-10T00:27:53;99547.00;;;14.80
70050;BMP180;57391;51.306;22.680;2022-07-10T00:30:20;99551.60;;;14.80
70050;BMP180;57391;51.306;22.680;2022-07-10T00:32:47;99548.40;;;14.80
70050;BMP180;57391;51.306;22.680;2022-07-10T00:35:14;99547.00;;;14.70
70050;BMP180;57391;51.306;22.680;2022-07-10T00:37:41;99546.20;;;14.70
70050;BMP180;57391;51.306;22.680;2022-07-10T00:40:09;99540.20;;;14.70
70050;BMP180;57391;51.306;22.680;2022-07-10T00:42:36;99539.00;;;14.70
70050;BMP180;57391;51.306;22.680;2022-07-10T00:45:03;99530.80;;;14.70
70050;BMP180;57391;51.306;22.680;2022-07-10T00:47:31;99531.00;;;14.70
70050;BMP180;57391;51.306;22.680;2022-07-10T00:49:58;99531.80;;;14.70
70050;BMP180;57391;51.306;22.680;2022-07-10T00:52:25;99527.00;;;14.70
70050;BMP180;57391;51.306;22.680;2022-07-10T00:54:54;99523.20;;;14.70
70050;BMP180;57391;51.306;22.680;2022-07-10T00:57:22;99520.00;;;14.74
70050;BMP180;57391;51.306;22.680;2022-07-10T00:59:50;99519.00;;;14.76
70050;BMP180;57391;51.306;22.680;2022-07-10T01:02:17;99513.40;;;14.78
70050;BMP180;57391;51.306;22.680;2022-07-10T01:04:44;99515.00;;;14.80
70050;BMP180;57391;51.306;22.680;2022-07-10T01:07:12;99513.00;;;14.80
70050;BMP180;57391;51.306;22.680;2022-07-10T01:09:43;99514.60;;;14.70
70050;BMP180;57391;51.306;22.680;2022-07-10T01:12:11;99512.20;;;14.70
70050;BMP180;57391;51.306;22.680;2022-07-10T01:14:39;99511.40;;;14.70
70050;BMP180;57391;51.306;22.680;2022-07-10T01:17:08;99508.20;;;14.68
70050;BMP180;57391;51.306;22.680;2022-07-10T01:19:35;99504.40;;;14.60
70050;BMP180;57391;51.306;22.680;2022-07-10T01:22:03;99505.40;;;14.60
70050;BMP180;57391;51.306;22.680;2022-07-10T01:24:30;99504.60;;;14.60
70050;BMP180;57391;51.306;22.680;2022-07-10T01:26:58;99500.80;;;14.60
70050;BMP180;57391;51.306;22.680;2022-07-10T01:29:25;99496.80;;;14.60
70050;BMP180;57391;51.306;22.680;2022-07-10T01:31:53;99500.00;;;14.60
70050;BMP180;57391;51.306;22.680;2022-07-10T01:34:20;99497.60;;;14.60
70050;BMP180;57391;51.306;22.680;2022-07-10T01:36:47;99497.00;;;14.70
70050;BMP180;57391;51.306;22.680;2022-07-10T01:39:14;99498.00;;;14.70
70050;BMP180;57391;51.306;22.680;2022-07-10T01:41:42;99495.40;;;14.70
70050;BMP180;57391;51.306;22.680;2022-07-10T01:44:08;99491.40;;;14.70
70050;BMP180;57391;51.306;22.680;2022-07-10T01:46:43;99489.80;;;14.70
70050;BMP180;57391;51.306;22.680;2022-07-10T01:49:12;99491.40;;;14.70
70050;BMP180;57391;51.306;22.680;2022-07-10T01:51:39;99487.00;;;14.70
70050;BMP180;57391;51.306;22.680;2022-07-10T01:54:06;99483.40;;;14.70
70050;BMP180;57391;51.306;22.680;2022-07-10T01:56:33;99480.60;;;14.80
70050;BMP180;57391;51.306;22.680;2022-07-10T01:59:00;99478.40;;;14.80
70050;BMP180;57391;51.306;22.680;2022-07-10T02:01:31;99477.60;;;14.80
70050;BMP180;57391;51.306;22.680;2022-07-10T02:03:58;99475.80;;;14.86
70050;BMP180;57391;51.306;22.680;2022-07-10T02:06:43;99468.20;;;14.90
70050;BMP180;57391;51.306;22.680;2022-07-10T02:09:11;99468.40;;;14.90
70050;BMP180;57391;51.306;22.680;2022-07-10T02:11:38;99463.20;;;14.94
70050;BMP180;57391;51.306;22.680;2022-07-10T02:14:06;99462.20;;;15.00
70050;BMP180;57391;51.306;22.680;2022-07-10T02:16:35;99457.60;;;15.00
70050;BMP180;57391;51.306;22.680;2022-07-10T02:19:03;99454.60;;;15.00
70050;BMP180;57391;51.306;22.680;2022-07-10T02:21:30;99452.80;;;15.10
70050;BMP180;57391;51.306;22.680;2022-07-10T02:23:57;99453.20;;;15.10
70050;BMP180;57391;51.306;22.680;2022-07-10T02:26:25;99451.80;;;15.20
70050;BMP180;57391;51.306;22.680;2022-07-10T02:28:52;99449.40;;;15.20
70050;BMP180;57391;51.306;22.680;2022-07-10T02:31:19;99450.80;;;15.20
70050;BMP180;57391;51.306;22.680;2022-07-10T02:33:46;99457.40;;;15.20
70050;BMP180;57391;51.306;22.680;2022-07-10T02:36:13;99457.60;;;15.26
70050;BMP180;57391;51.306;22.680;2022-07-10T02:38:40;99458.60;;;15.20
70050;BMP180;57391;51.306;22.680;2022-07-10T02:41:07;99462.20;;;15.20
70050;BMP180;57391;51.306;22.680;2022-07-10T02:43:34;99462.20;;;15.20
70050;BMP180;57391;51.306;22.680;2022-07-10T02:46:02;99458.00;;;15.20
70050;BMP180;57391;51.306;22.680;2022-07-10T02:48:29;99457.00;;;15.20
70050;BMP180;57391;51.306;22.680;2022-07-10T02:50:56;99454.40;;;15.20
70050;BMP180;57391;51.306;22.680;2022-07-10T02:53:23;99453.20;;;15.20
70050;BMP180;57391;51.306;22.680;2022-07-10T02:55:50;99449.40;;;15.20
70050;BMP180;57391;51.306;22.680;2022-07-10T02:58:17;99453.00;;;15.20
70050;BMP180;57391;51.306;22.680;2022-07-10T03:00:46;99448.00;;;15.20
70050;BMP180;57391;51.306;22.680;2022-07-10T03:03:13;99448.20;;;15.20
70050;BMP180;57391;51.306;22.680;2022-07-10T03:05:40;99449.20;;;15.20
70050;BMP180;57391;51.306;22.680;2022-07-10T03:08:07;99448.20;;;15.20
70050;BMP180;57391;51.306;22.680;2022-07-10T03:10:34;99455.40;;;15.20
70050;BMP180;57391;51.306;22.680;2022-07-10T03:13:02;99457.40;;;15.20
70050;BMP180;57391;51.306;22.680;2022-07-10T03:15:29;99450.80;;;15.20
70050;BMP180;57391;51.306;22.680;2022-07-10T03:17:56;99451.80;;;15.16
70050;BMP180;57391;51.306;22.680;2022-07-10T03:20:23;99450.40;;;15.10
70050;BMP180;57391;51.306;22.680;2022-07-10T03:22:51;99448.20;;;15.10
70050;BMP180;57391;51.306;22.680;2022-07-10T03:25:18;99449.20;;;15.10
70050;BMP180;57391;51.306;22.680;2022-07-10T03:27:45;99444.00;;;15.10
70050;BMP180;57391;51.306;22.680;2022-07-10T03:30:12;99445.60;;;15.06
70050;BMP180;57391;51.306;22.680;2022-07-10T03:32:39;99445.00;;;15.00
70050;BMP180;57391;51.306;22.680;2022-07-10T03:35:07;99447.80;;;15.00
70050;BMP180;57391;51.306;22.680;2022-07-10T03:37:34;99444.20;;;15.02
70050;BMP180;57391;51.306;22.680;2022-07-10T03:40:01;99450.80;;;15.08
70050;BMP180;57391;51.306;22.680;2022-07-10T03:42:28;99449.40;;;15.10
70050;BMP180;57391;51.306;22.680;2022-07-10T03:44:55;99447.00;;;15.10
70050;BMP180;57391;51.306;22.680;2022-07-10T03:47:22;99439.60;;;15.34
70050;BMP180;57391;51.306;22.680;2022-07-10T03:49:49;99434.20;;;16.32
70050;BMP180;57391;51.306;22.680;2022-07-10T03:52:16;99439.40;;;17.42
70050;BMP180;57391;51.306;22.680;2022-07-10T03:54:43;99442.80;;;18.46
70050;BMP180;57391;51.306;22.680;2022-07-10T03:57:10;99442.40;;;19.50
70050;BMP180;57391;51.306;22.680;2022-07-10T03:59:56;99455.80;;;20.32
70050;BMP180;57391;51.306;22.680;2022-07-10T04:02:23;99439.20;;;20.56
70050;BMP180;57391;51.306;22.680;2022-07-10T04:04:50;99441.00;;;21.68
70050;BMP180;57391;51.306;22.680;2022-07-10T04:07:18;99437.80;;;22.92
70050;BMP180;57391;51.306;22.680;2022-07-10T04:09:45;99445.20;;;23.80
70050;BMP180;57391;51.306;22.680;2022-07-10T04:12:12;99454.80;;;24.50
70050;BMP180;57391;51.306;22.680;2022-07-10T04:14:39;99460.00;;;23.64
70050;BMP180;57391;51.306;22.680;2022-07-10T04:17:06;99441.40;;;23.38
70050;BMP180;57391;51.306;22.680;2022-07-10T04:19:33;99443.60;;;24.14
70050;BMP180;57391;51.306;22.680;2022-07-10T04:22:00;99439.40;;;25.26
70050;BMP180;57391;51.306;22.680;2022-07-10T04:24:27;99444.20;;;26.36
70050;BMP180;57391;51.306;22.680;2022-07-10T04:26:54;99445.00;;;27.34
70050;BMP180;57391;51.306;22.680;2022-07-10T04:29:21;99441.40;;;28.40
70050;BMP180;57391;51.306;22.680;2022-07-10T04:31:49;99444.60;;;29.34
70050;BMP180;57391;51.306;22.680;2022-07-10T04:34:16;99443.60;;;30.16
70050;BMP180;57391;51.306;22.680;2022-07-10T04:36:43;99443.40;;;30.98
70050;BMP180;57391;51.306;22.680;2022-07-10T04:39:10;99445.60;;;31.70
70050;BMP180;57391;51.306;22.680;2022-07-10T04:41:37;99442.80;;;32.28
70050;BMP180;57391;51.306;22.680;2022-07-10T04:44:05;99445.60;;;32.58
70050;BMP180;57391;51.306;22.680;2022-07-10T04:46:32;99449.80;;;32.34
70050;BMP180;57391;51.306;22.680;2022-07-10T04:48:59;99455.80;;;31.44
70050;BMP180;57391;51.306;22.680;2022-07-10T04:51:26;99458.80;;;30.44
70050;BMP180;57391;51.306;22.680;2022-07-10T04:53:53;99458.40;;;29.52
70050;BMP180;57391;51.306;22.680;2022-07-10T04:56:20;99456.60;;;29.10
70050;BMP180;57391;51.306;22.680;2022-07-10T04:58:47;99442.40;;;29.36
70050;BMP180;57391;51.306;22.680;2022-07-10T05:01:15;99439.40;;;30.16
70050;BMP180;57391;51.306;22.680;2022-07-10T05:03:42;99439.80;;;30.82
70050;BMP180;57391;51.306;22.680;2022-07-10T05:06:09;99454.00;;;30.58
70050;BMP180;57391;51.306;22.680;2022-07-10T05:08:36;99456.80;;;29.82
70050;BMP180;57391;51.306;22.680;2022-07-10T05:11:03;99456.60;;;29.02
70050;BMP180;57391;51.306;22.680;2022-07-10T05:13:31;99449.80;;;28.28
70050;BMP180;57391;51.306;22.680;2022-07-10T05:15:58;99447.20;;;27.84
70050;BMP180;57391;51.306;22.680;2022-07-10T05:18:25;99434.40;;;28.20
70050;BMP180;57391;51.306;22.680;2022-07-10T05:20:52;99432.20;;;29.18
70050;BMP180;57391;51.306;22.680;2022-07-10T05:23:19;99428.40;;;30.10
70050;BMP180;57391;51.306;22.680;2022-07-10T05:25:46;99426.40;;;30.76
70050;BMP180;57391;51.306;22.680;2022-07-10T05:28:14;99427.60;;;31.10
70050;BMP180;57391;51.306;22.680;2022-07-10T05:30:42;99432.80;;;30.60
70050;BMP180;57391;51.306;22.680;2022-07-10T05:33:09;99439.80;;;29.78
70050;BMP180;57391;51.306;22.680;2022-07-10T05:35:36;99437.60;;;29.08
70050;BMP180;57391;51.306;22.680;2022-07-10T05:38:04;99432.80;;;28.48
70050;BMP180;57391;51.306;22.680;2022-07-10T05:40:31;99431.40;;;28.22
70050;BMP180;57391;51.306;22.680;2022-07-10T05:42:59;99424.40;;;28.56
70050;BMP180;57391;51.306;22.680;2022-07-10T05:45:26;99423.80;;;29.34
70050;BMP180;57391;51.306;22.680;2022-07-10T05:47:53;99422.00;;;30.14
70050;BMP180;57391;51.306;22.680;2022-07-10T05:50:20;99421.40;;;30.92
70050;BMP180;57391;51.306;22.680;2022-07-10T05:52:47;99418.20;;;31.50
70050;BMP180;57391;51.306;22.680;2022-07-10T05:55:15;99421.80;;;32.08
70050;BMP180;57391;51.306;22.680;2022-07-10T05:57:42;99423.00;;;32.10
70050;BMP180;57391;51.306;22.680;2022-07-10T06:00:10;99426.60;;;31.80
70050;BMP180;57391;51.306;22.680;2022-07-10T06:02:40;99428.60;;;31.22
70050;BMP180;57391;51.306;22.680;2022-07-10T06:05:08;99429.00;;;30.42
70050;BMP180;57391;51.306;22.680;2022-07-10T06:07:36;99434.40;;;29.70
70050;BMP180;57391;51.306;22.680;2022-07-10T06:10:04;99433.00;;;28.98
70050;BMP180;57391;51.306;22.680;2022-07-10T06:12:32;99427.80;;;28.34
70050;BMP180;57391;51.306;22.680;2022-07-10T06:14:59;99435.00;;;27.74
70050;BMP180;57391;51.306;22.680;2022-07-10T06:17:26;99430.60;;;27.30
70050;BMP180;57391;51.306;22.680;2022-07-10T06:19:53;99429.20;;;27.00
70050;BMP180;57391;51.306;22.680;2022-07-10T06:22:21;99428.20;;;27.20
70050;BMP180;57391;51.306;22.680;2022-07-10T06:25:06;99425.40;;;27.10
70050;BMP180;57391;51.306;22.680;2022-07-10T06:27:34;99423.80;;;27.18
70050;BMP180;57391;51.306;22.680;2022-07-10T06:30:02;99430.60;;;27.50
70050;BMP180;57391;51.306;22.680;2022-07-10T06:32:30;99427.60;;;27.06
70050;BMP180;57391;51.306;22.680;2022-07-10T06:34:57;99430.80;;;26.74
70050;BMP180;57391;51.306;22.680;2022-07-10T06:37:25;99432.60;;;26.30
70050;BMP180;57391;51.306;22.680;2022-07-10T06:39:52;99433.00;;;25.94
70050;BMP180;57391;51.306;22.680;2022-07-10T06:42:19;99433.40;;;25.50
70050;BMP180;57391;51.306;22.680;2022-07-10T06:44:51;99431.60;;;25.20
70050;BMP180;57391;51.306;22.680;2022-07-10T06:47:19;99428.60;;;25.00
70050;BMP180;57391;51.306;22.680;2022-07-10T06:50:08;99425.60;;;24.88
70050;BMP180;57391;51.306;22.680;2022-07-10T06:52:36;99424.40;;;24.82
70050;BMP180;57391;51.306;22.680;2022-07-10T06:55:04;99426.60;;;24.98
70050;BMP180;57391;51.306;22.680;2022-07-10T06:57:32;99423.60;;;24.94
70050;BMP180;57391;51.306;22.680;2022-07-10T07:00:00;99424.20;;;24.80
70050;BMP180;57391;51.306;22.680;2022-07-10T07:02:27;99421.80;;;24.60
70050;BMP180;57391;51.306;22.680;2022-07-10T07:04:54;99421.00;;;24.30
70050;BMP180;57391;51.306;22.680;2022-07-10T07:07:22;99418.60;;;24.20
70050;BMP180;57391;51.306;22.680;2022-07-10T07:09:49;99413.80;;;24.06
70050;BMP180;57391;51.306;22.680;2022-07-10T07:12:19;99411.40;;;24.54
70050;BMP180;57391;51.306;22.680;2022-07-10T07:14:47;99416.20;;;24.70
70050;BMP180;57391;51.306;22.680;2022-07-10T07:17:14;99418.60;;;24.60
70050;BMP180;57391;51.306;22.680;2022-07-10T07:19:49;99415.00;;;24.40
70050;BMP180;57391;51.306;22.680;2022-07-10T07:22:36;99411.20;;;24.96
70050;BMP180;57391;51.306;22.680;2022-07-10T07:25:22;99418.40;;;25.40
70050;BMP180;57391;51.306;22.680;2022-07-10T07:27:49;99412.00;;;25.84
70050;BMP180;57391;51.306;22.680;2022-07-10T07:30:16;99417.60;;;26.36
70050;BMP180;57391;51.306;22.680;2022-07-10T07:32:46;99414.20;;;26.70
70050;BMP180;57391;51.306;22.680;2022-07-10T07:35:15;99414.20;;;26.80
70050;BMP180;57391;51.306;22.680;2022-07-10T07:37:49;99418.80;;;26.74
70050;BMP180;57391;51.306;22.680;2022-07-10T07:40:20;99415.00;;;26.60
70050;BMP180;57391;51.306;22.680;2022-07-10T07:42:50;99413.00;;;26.58
70050;BMP180;57391;51.306;22.680;2022-07-10T07:45:18;99412.20;;;26.70
70050;BMP180;57391;51.306;22.680;2022-07-10T07:47:48;99412.80;;;26.72
70050;BMP180;57391;51.306;22.680;2022-07-10T07:50:19;99405.00;;;26.90
70050;BMP180;57391;51.306;22.680;2022-07-10T07:52:48;99416.60;;;26.64
70050;BMP180;57391;51.306;22.680;2022-07-10T07:55:17;99409.40;;;26.36
70050;BMP180;57391;51.306;22.680;2022-07-10T07:57:46;99408.60;;;26.02
70050;BMP180;57391;51.306;22.680;2022-07-10T08:00:15;99408.00;;;25.76
70050;BMP180;57391;51.306;22.680;2022-07-10T08:03:11;99409.40;;;25.50
70050;BMP180;57391;51.306;22.680;2022-07-10T08:05:38;99404.80;;;25.70
70050;BMP180;57391;51.306;22.680;2022-07-10T08:08:06;99403.80;;;25.50
70050;BMP180;57391;51.306;22.680;2022-07-10T08:10:37;99402.40;;;25.20
70050;BMP180;57391;51.306;22.680;2022-07-10T08:13:04;99404.40;;;24.96
70050;BMP180;57391;51.306;22.680;2022-07-10T08:15:31;99405.20;;;24.64
70050;BMP180;57391;51.306;22.680;2022-07-10T08:17:58;99406.60;;;24.50
70050;BMP180;57391;51.306;22.680;2022-07-10T08:20:27;99410.80;;;24.20
70050;BMP180;57391;51.306;22.680;2022-07-10T08:22:55;99412.80;;;24.02
70050;BMP180;57391;51.306;22.680;2022-07-10T08:25:22;99414.00;;;23.88
70050;BMP180;57391;51.306;22.680;2022-07-10T08:27:50;99417.00;;;23.60
70050;BMP180;57391;51.306;22.680;2022-07-10T08:30:18;99408.40;;;23.50
70050;BMP180;57391;51.306;22.680;2022-07-10T08:32:45;99400.40;;;23.88
70050;BMP180;57391;51.306;22.680;2022-07-10T08:35:12;99396.00;;;24.46
70050;BMP180;57391;51.306;22.680;2022-07-10T08:37:44;99405.40;;;24.90
70050;BMP180;57391;51.306;22.680;2022-07-10T08:40:16;99400.80;;;24.90
70050;BMP180;57391;51.306;22.680;2022-07-10T08:42:45;99400.00;;;24.80
70050;BMP180;57391;51.306;22.680;2022-07-10T08:45:14;99400.60;;;24.58
70050;BMP180;57391;51.306;22.680;2022-07-10T08:47:41;99389.20;;;24.38
70050;BMP180;57391;51.306;22.680;2022-07-10T08:50:23;99393.40;;;24.20
70050;BMP180;57391;51.306;22.680;2022-07-10T08:53:15;99396.60;;;24.00
70050;BMP180;57391;51.306;22.680;2022-07-10T08:55:43;99396.60;;;23.80
70050;BMP180;57391;51.306;22.680;2022-07-10T08:58:12;99396.00;;;23.60
70050;BMP180;57391;51.306;22.680;2022-07-10T09:00:40;99401.80;;;23.40
70050;BMP180;57391;51.306;22.680;2022-07-10T09:03:08;99403.80;;;23.20
70050;BMP180;57391;51.306;22.680;2022-07-10T09:05:35;99398.60;;;23.00
70050;BMP180;57391;51.306;22.680;2022-07-10T09:08:02;99399.00;;;22.90
70050;BMP180;57391;51.306;22.680;2022-07-10T09:10:30;99403.80;;;22.80
70050;BMP180;57391;51.306;22.680;2022-07-10T09:13:01;99407.40;;;22.68
70050;BMP180;57391;51.306;22.680;2022-07-10T09:15:30;99406.60;;;22.50
70050;BMP180;57391;51.306;22.680;2022-07-10T09:18:04;99401.20;;;22.38
70050;BMP180;57391;51.306;22.680;2022-07-10T09:20:38;99405.40;;;22.20
70050;BMP180;57391;51.306;22.680;2022-07-10T09:23:20;99406.40;;;22.10
70050;BMP180;57391;51.306;22.680;2022-07-10T09:25:50;99402.60;;;21.90
70050;BMP180;57391;51.306;22.680;2022-07-10T09:28:22;99394.40;;;21.70
70050;BMP180;57391;51.306;22.680;2022-07-10T09:30:53;99394.80;;;21.60
70050;BMP180;57391;51.306;22.680;2022-07-10T09:33:23;99390.60;;;21.40
70050;BMP180;57391;51.306;22.680;2022-07-10T09:36:10;99389.00;;;21.14
70050;BMP180;57391;51.306;22.680;2022-07-10T09:41:29;99393.00;;;20.80
70050;BMP180;57391;51.306;22.680;2022-07-10T09:46:35;99396.40;;;20.70
70050;BMP180;57391;51.306;22.680;2022-07-10T09:49:10;99396.60;;;20.60
70050;BMP180;57391;51.306;22.680;2022-07-10T09:51:46;99397.20;;;20.60
70050;BMP180;57391;51.306;22.680;2022-07-10T09:54:13;99399.40;;;20.60
70050;BMP180;57391;51.306;22.680;2022-07-10T09:56:44;99398.80;;;20.52
70050;BMP180;57391;51.306;22.680;2022-07-10T09:59:16;99396.40;;;20.50
70050;BMP180;57391;51.306;22.680;2022-07-10T10:01:48;99396.80;;;20.50
70050;BMP180;57391;51.306;22.680;2022-07-10T10:04:19;99397.20;;;20.50
70050;BMP180;57391;51.306;22.680;2022-07-10T10:06:52;99395.60;;;20.50
70050;BMP180;57391;51.306;22.680;2022-07-10T10:09:41;99392.20;;;20.50
70050;BMP180;57391;51.306;22.680;2022-07-10T10:12:35;99392.60;;;20.50
70050;BMP180;57391;51.306;22.680;2022-07-10T10:15:04;99393.00;;;20.50
70050;BMP180;57391;51.306;22.680;2022-07-10T10:17:34;99390.60;;;20.50
70050;BMP180;57391;51.306;22.680;2022-07-10T10:20:04;99397.80;;;20.50
70050;BMP180;57391;51.306;22.680;2022-07-10T10:22:52;99396.20;;;20.50
70050;BMP180;57391;51.306;22.680;2022-07-10T10:25:23;99402.20;;;20.46
70050;BMP180;57391;51.306;22.680;2022-07-10T10:27:51;99404.80;;;20.50
70050;BMP180;57391;51.306;22.680;2022-07-10T10:30:19;99405.20;;;20.50
70050;BMP180;57391;51.306;22.680;2022-07-10T10:32:46;99400.80;;;20.50
70050;BMP180;57391;51.306;22.680;2022-07-10T10:35:47;99402.80;;;20.50
70050;BMP180;57391;51.306;22.680;2022-07-10T10:38:14;99398.80;;;20.58
70050;BMP180;57391;51.306;22.680;2022-07-10T10:40:45;99400.00;;;20.60
70050;BMP180;57391;51.306;22.680;2022-07-10T10:43:22;99404.80;;;20.60
70050;BMP180;57391;51.306;22.680;2022-07-10T10:45:51;99406.60;;;20.70
70050;BMP180;57391;51.306;22.680;2022-07-10T10:48:19;99404.40;;;20.70
70050;BMP180;57391;51.306;22.680;2022-07-10T10:50:52;99413.60;;;20.70
70050;BMP180;57391;51.306;22.680;2022-07-10T10:53:27;99407.00;;;20.70
70050;BMP180;57391;51.306;22.680;2022-07-10T10:58:45;99409.40;;;20.70
70050;BMP180;57391;51.306;22.680;2022-07-10T11:12:06;99401.60;;;21.56
70050;BMP180;57391;51.306;22.680;2022-07-10T11:14:47;99406.60;;;21.70
70050;BMP180;57391;51.306;22.680;2022-07-10T11:17:16;99402.60;;;21.90
70050;BMP180;57391;51.306;22.680;2022-07-10T11:19:43;99402.00;;;21.90
70050;BMP180;57391;51.306;22.680;2022-07-10T11:25:41;99403.40;;;22.10
70050;BMP180;57391;51.306;22.680;2022-07-10T11:28:11;99406.20;;;22.20
70050;BMP180;57391;51.306;22.680;2022-07-10T11:30:50;99410.80;;;22.22
70050;BMP180;57391;51.306;22.680;2022-07-10T11:33:20;99415.40;;;22.28
70050;BMP180;57391;51.306;22.680;2022-07-10T11:35:53;99409.60;;;22.20
70050;BMP180;57391;51.306;22.680;2022-07-10T11:38:24;99414.00;;;22.30
70050;BMP180;57391;51.306;22.680;2022-07-10T11:40:52;99407.80;;;22.30
70050;BMP180;57391;51.306;22.680;2022-07-10T11:43:23;99409.20;;;22.30
70050;BMP180;57391;51.306;22.680;2022-07-10T11:45:53;99408.40;;;22.40
70050;BMP180;57391;51.306;22.680;2022-07-10T11:48:26;99412.80;;;22.50
70050;BMP180;57391;51.306;22.680;2022-07-10T11:50:53;99411.40;;;22.50
70050;BMP180;57391;51.306;22.680;2022-07-10T11:53:25;99417.60;;;22.60
70050;BMP180;57391;51.306;22.680;2022-07-10T11:55:54;99413.40;;;22.50
70050;BMP180;57391;51.306;22.680;2022-07-10T11:58:22;99411.80;;;22.50
70050;BMP180;57391;51.306;22.680;2022-07-10T12:01:04;99419.20;;;22.40
70050;BMP180;57391;51.306;22.680;2022-07-10T12:03:36;99417.60;;;22.30
70050;BMP180;57391;51.306;22.680;2022-07-10T12:06:07;99417.00;;;22.26
70050;BMP180;57391;51.306;22.680;2022-07-10T12:08:46;99415.00;;;22.20
70050;BMP180;57391;51.306;22.680;2022-07-10T12:11:15;99415.00;;;22.20
70050;BMP180;57391;51.306;22.680;2022-07-10T12:13:45;99421.00;;;22.10
70050;BMP180;57391;51.306;22.680;2022-07-10T12:16:13;99417.40;;;22.00
70050;BMP180;57391;51.306;22.680;2022-07-10T12:18:44;99422.60;;;21.90
70050;BMP180;57391;51.306;22.680;2022-07-10T12:21:15;99418.40;;;21.80
70050;BMP180;57391;51.306;22.680;2022-07-10T12:23:45;99421.00;;;21.80
70050;BMP180;57391;51.306;22.680;2022-07-10T12:26:13;99422.20;;;21.78
70050;BMP180;57391;51.306;22.680;2022-07-10T12:28:54;99421.80;;;21.70
70050;BMP180;57391;51.306;22.680;2022-07-10T12:31:28;99425.20;;;21.60
70050;BMP180;57391;51.306;22.680;2022-07-10T12:34:04;99424.20;;;21.50
70050;BMP180;57391;51.306;22.680;2022-07-10T12:36:51;99429.40;;;21.50
70050;BMP180;57391;51.306;22.680;2022-07-10T12:39:25;99432.20;;;21.40
70050;BMP180;57391;51.306;22.680;2022-07-10T12:42:13;99430.80;;;21.30
70050;BMP180;57391;51.306;22.680;2022-07-10T12:44:44;99437.40;;;21.30
70050;BMP180;57391;51.306;22.680;2022-07-10T12:47:17;99441.00;;;21.20
70050;BMP180;57391;51.306;22.680;2022-07-10T12:50:03;99440.00;;;21.10
70050;BMP180;57391;51.306;22.680;2022-07-10T12:52:33;99441.40;;;21.10
70050;BMP180;57391;51.306;22.680;2022-07-10T12:55:20;99436.40;;;21.08
70050;BMP180;57391;51.306;22.680;2022-07-10T12:58:04;99442.40;;;21.00
70050;BMP180;57391;51.306;22.680;2022-07-10T13:03:21;99440.40;;;20.80
70050;BMP180;57391;51.306;22.680;2022-07-10T13:05:50;99441.60;;;20.70
70050;BMP180;57391;51.306;22.680;2022-07-10T13:08:22;99443.80;;;20.68
70050;BMP180;57391;51.306;22.680;2022-07-10T13:10:58;99438.20;;;20.60
70050;BMP180;57391;51.306;22.680;2022-07-10T13:13:45;99439.20;;;20.60
70050;BMP180;57391;51.306;22.680;2022-07-10T13:16:13;99434.60;;;20.60
70050;BMP180;57391;51.306;22.680;2022-07-10T13:18:42;99436.80;;;20.60
70050;BMP180;57391;51.306;22.680;2022-07-10T13:21:13;99434.40;;;20.60
70050;BMP180;57391;51.306;22.680;2022-07-10T13:23:40;99435.00;;;20.60
70050;BMP180;57391;51.306;22.680;2022-07-10T13:26:09;99431.60;;;20.58
70050;BMP180;57391;51.306;22.680;2022-07-10T13:28:36;99433.20;;;20.60
70050;BMP180;57391;51.306;22.680;2022-07-10T13:31:04;99432.20;;;20.60
70050;BMP180;57391;51.306;22.680;2022-07-10T13:33:31;99437.40;;;20.58
70050;BMP180;57391;51.306;22.680;2022-07-10T13:36:01;99436.20;;;20.58
70050;BMP180;57391;51.306;22.680;2022-07-10T13:38:29;99440.20;;;20.50
70050;BMP180;57391;51.306;22.680;2022-07-10T13:40:56;99435.40;;;20.50
70050;BMP180;57391;51.306;22.680;2022-07-10T13:43:24;99436.40;;;20.50
70050;BMP180;57391;51.306;22.680;2022-07-10T13:45:55;99435.40;;;20.50
70050;BMP180;57391;51.306;22.680;2022-07-10T13:48:24;99439.00;;;20.50
70050;BMP180;57391;51.306;22.680;2022-07-10T13:50:53;99438.00;;;20.50
70050;BMP180;57391;51.306;22.680;2022-07-10T13:53:20;99436.20;;;20.50
70050;BMP180;57391;51.306;22.680;2022-07-10T13:55:48;99436.80;;;20.48
70050;BMP180;57391;51.306;22.680;2022-07-10T13:58:16;99437.80;;;20.40
70050;BMP180;57391;51.306;22.680;2022-07-10T14:00:45;99436.80;;;20.40
70050;BMP180;57391;51.306;22.680;2022-07-10T14:03:13;99431.80;;;20.30
70050;BMP180;57391;51.306;22.680;2022-07-10T14:05:40;99435.20;;;20.22
70050;BMP180;57391;51.306;22.680;2022-07-10T14:08:07;99439.60;;;20.20
70050;BMP180;57391;51.306;22.680;2022-07-10T14:10:35;99438.60;;;20.10
70050;BMP180;57391;51.306;22.680;2022-07-10T14:13:02;99442.40;;;20.00
70050;BMP180;57391;51.306;22.680;2022-07-10T14:15:30;99439.60;;;19.90
70050;BMP180;57391;51.306;22.680;2022-07-10T14:17:57;99445.80;;;19.80
70050;BMP180;57391;51.306;22.680;2022-07-10T14:20:24;99450.40;;;19.68
70050;BMP180;57391;51.306;22.680;2022-07-10T14:22:51;99442.60;;;19.60
70050;BMP180;57391;51.306;22.680;2022-07-10T14:25:24;99446.60;;;19.50
70050;BMP180;57391;51.306;22.680;2022-07-10T14:27:52;99453.40;;;19.38
70050;BMP180;57391;51.306;22.680;2022-07-10T14:30:19;99457.40;;;19.30
70050;BMP180;57391;51.306;22.680;2022-07-10T14:32:47;99457.60;;;19.30
70050;BMP180;57391;51.306;22.680;2022-07-10T14:35:14;99461.20;;;19.20